Time;durP1;ratioP1;P1;durP2;ratioP2;P2;SDS_P1;SDS_P2;PMS_P1;PMS_P2;Temp;Humidity;BMP_temperature;BMP_pressure;BME280_temperature;BME280_humidity;BME280_pressure;Samples;Min_cycle;Max_cycle;Signal;HPM_P1;HPM_P2
2021/04/20 00:00:39;;;;;;;23.20;15.52;;;;;;;5.75;100.00;100940.63;5227182;28;20128;-79
2021/04/20 00:03:09;;;;;;;21.27;15.18;;;;;;;5.87;100.00;100940.50;5214127;28;20108;-79
2021/04/20 00:05:40;;;;;;;18.83;12.65;;;;;;;5.85;100.00;100937.09;5222898;28;20025;-79
2021/04/20 00:08:10;;;;;;;21.10;13.60;;;;;;;6.20;100.00;100935.81;5237360;28;20033;-78
2021/04/20 00:10:40;;;;;;;21.50;12.90;;;;;;;5.82;100.00;100934.53;5237719;28;20021;-78
2021/04/20 00:13:12;;;;;;;19.30;11.82;;;;;;;5.73;100.00;100938.03;5236428;28;20636;-77
2021/04/20 00:15:42;;;;;;;19.55;12.52;;;;;;;5.77;100.00;100931.09;5224110;28;20041;-78
2021/04/20 00:18:12;;;;;;;16.67;11.40;;;;;;;5.56;100.00;100931.31;5237875;28;20051;-79
2021/04/20 00:20:43;;;;;;;22.13;13.50;;;;;;;5.38;100.00;100940.13;5257371;28;20304;-78
2021/04/20 00:23:14;;;;;;;22.45;14.45;;;;;;;5.32;100.00;100931.53;5232989;28;20020;-78
2021/04/20 00:25:44;;;;;;;26.08;16.95;;;;;;;5.29;100.00;100926.38;5233284;28;20021;-78
2021/04/20 00:28:25;;;;;;;30.98;18.08;;;;;;;5.46;100.00;100929.69;5232073;28;20017;-78
2021/04/20 00:30:56;;;;;;;28.10;18.33;;;;;;;5.45;100.00;100923.66;5233465;28;20029;-78
2021/04/20 00:33:26;;;;;;;28.90;19.67;;;;;;;5.54;100.00;100920.13;5229771;28;20428;-78
2021/04/20 00:35:56;;;;;;;31.67;19.77;;;;;;;5.52;100.00;100917.53;5236383;28;20040;-80
2021/04/20 00:38:27;;;;;;;27.35;17.98;;;;;;;5.33;100.00;100919.44;5228709;28;20037;-79
2021/04/20 00:41:11;;;;;;;29.27;17.88;;;;;;;5.21;100.00;100920.41;5222333;28;20028;-80
2021/04/20 00:43:45;;;;;;;28.13;18.95;;;;;;;5.28;100.00;100916.00;5233062;28;20027;-78
2021/04/20 00:46:20;;;;;;;27.95;18.67;;;;;;;5.34;100.00;100910.81;5212683;28;20029;-79
2021/04/20 00:48:51;;;;;;;32.15;20.55;;;;;;;5.42;100.00;100904.69;5213230;28;20510;-78
2021/04/20 00:51:22;;;;;;;31.35;19.15;;;;;;;5.46;100.00;100906.34;5209523;28;20305;-79
2021/04/20 00:53:52;;;;;;;35.40;20.00;;;;;;;5.40;100.00;100904.69;5219434;28;20020;-80
2021/04/20 00:56:22;;;;;;;30.25;20.02;;;;;;;5.30;100.00;100897.00;5223974;28;20104;-80
2021/04/20 00:58:53;;;;;;;30.92;19.33;;;;;;;5.32;100.00;100903.03;5222752;28;20052;-80
2021/04/20 01:01:23;;;;;;;31.65;18.83;;;;;;;5.09;100.00;100898.91;5219052;28;20430;-79
2021/04/20 01:03:53;;;;;;;31.13;19.67;;;;;;;5.25;100.00;100901.38;5214995;28;20071;-79
2021/04/20 01:06:24;;;;;;;27.33;16.85;;;;;;;5.12;100.00;100902.34;5211653;28;20021;-79
2021/04/20 01:08:54;;;;;;;30.33;19.48;;;;;;;5.21;100.00;100899.69;5211477;28;20051;-80
2021/04/20 01:11:24;;;;;;;25.25;15.70;;;;;;;4.90;100.00;100907.72;5211541;28;20128;-78
2021/04/20 01:13:55;;;;;;;21.85;14.98;;;;;;;5.17;100.00;100899.72;5217425;28;20021;-79
2021/04/20 01:16:25;;;;;;;20.67;12.63;;;;;;;5.55;100.00;100901.94;5212380;28;20081;-80
2021/04/20 01:18:56;;;;;;;18.30;12.25;;;;;;;5.48;100.00;100908.06;5212924;28;20031;-79
2021/04/20 01:21:27;;;;;;;22.00;12.50;;;;;;;5.18;100.00;100904.88;5223447;28;20088;-80
2021/04/20 01:24:17;;;;;;;24.70;13.50;;;;;;;5.04;100.00;100906.75;5217635;28;20063;-78
2021/04/20 01:26:48;;;;;;;25.13;14.85;;;;;;;4.98;100.00;100900.75;5202005;28;20041;-80
2021/04/20 01:29:20;;;;;;;25.45;16.45;;;;;;;4.99;100.00;100905.91;5217169;28;20459;-79
2021/04/20 01:31:51;;;;;;;26.40;17.33;;;;;;;5.07;100.00;100896.38;5215491;28;20048;-79
2021/04/20 01:34:21;;;;;;;23.65;15.43;;;;;;;5.14;100.00;100903.19;5225271;28;20037;-78
2021/04/20 01:36:51;;;;;;;24.73;15.48;;;;;;;5.06;100.00;100898.94;5217409;28;20920;-80
2021/04/20 01:39:21;;;;;;;29.10;17.60;;;;;;;4.83;100.00;100896.53;5216406;28;20059;-80
2021/04/20 01:41:52;;;;;;;34.38;18.48;;;;;;;4.78;100.00;100898.31;5215538;28;20022;-79
2021/04/20 01:44:23;;;;;;;32.22;17.35;;;;;;;4.74;100.00;100893.16;5220514;28;20260;-79
2021/04/20 01:46:54;;;;;;;31.33;17.10;;;;;;;4.65;100.00;100891.50;5216197;28;20059;-79
2021/04/20 01:49:24;;;;;;;52.92;21.00;;;;;;;4.68;100.00;100896.66;5213415;28;20641;-80
2021/04/20 01:51:55;;;;;;;182.15;24.73;;;;;;;4.79;100.00;100889.66;5224375;28;20045;-78
2021/04/20 01:54:25;;;;;;;245.85;21.80;;;;;;;4.65;100.00;100894.06;5223851;28;20075;-78
2021/04/20 01:56:56;;;;;;;146.25;20.05;;;;;;;4.60;100.00;100897.59;5220846;28;20471;-78
2021/04/20 01:59:29;;;;;;;206.10;19.95;;;;;;;4.31;100.00;100897.75;5218868;28;20087;-80
2021/04/20 02:01:59;;;;;;;58.97;18.35;;;;;;;4.35;100.00;100896.88;5219858;28;20028;-78
2021/04/20 02:04:30;;;;;;;149.20;21.52;;;;;;;4.41;100.00;100901.13;5213026;28;20023;-78
2021/04/20 02:07:01;;;;;;;38.00;21.67;;;;;;;4.66;100.00;100895.78;5207669;28;20021;-80
2021/04/20 02:09:31;;;;;;;33.25;19.67;;;;;;;4.85;100.00;100897.41;5222900;28;20093;-80
2021/04/20 02:12:01;;;;;;;65.80;22.35;;;;;;;4.61;100.00;100897.56;5210312;28;20505;-78
2021/04/20 02:14:34;;;;;;;81.57;24.20;;;;;;;4.57;100.00;100895.88;5215637;28;20025;-78
2021/04/20 02:17:05;;;;;;;45.88;22.80;;;;;;;4.93;100.00;100898.19;5223602;28;20025;-79
2021/04/20 02:19:36;;;;;;;74.60;24.63;;;;;;;4.74;100.00;100896.63;5214873;28;20040;-80
2021/04/20 02:22:07;;;;;;;43.90;23.13;;;;;;;4.67;100.00;100905.28;5219522;28;20048;-80
2021/04/20 02:24:39;;;;;;;47.22;26.17;;;;;;;4.64;100.00;100894.94;5220662;28;20036;-80
2021/04/20 02:27:10;;;;;;;55.20;25.45;;;;;;;4.64;100.00;100894.94;5216504;28;20031;-79
2021/04/20 02:29:41;;;;;;;36.78;23.77;;;;;;;4.92;100.00;100898.19;5220325;28;20025;-78
2021/04/20 02:32:11;;;;;;;35.42;23.30;;;;;;;4.68;100.00;100896.66;5221812;28;20029;-79
2021/04/20 02:34:42;;;;;;;35.85;23.90;;;;;;;4.51;100.00;100892.47;5226959;28;20064;-78
2021/04/20 02:37:13;;;;;;;33.47;22.92;;;;;;;4.48;100.00;100893.31;5222262;28;20026;-81
2021/04/20 02:39:44;;;;;;;48.97;24.73;;;;;;;4.27;100.00;100902.97;5229481;28;20017;-79
2021/04/20 02:42:15;;;;;;;208.57;27.75;;;;;;;4.22;100.00;100899.50;5230459;28;20021;-79
2021/04/20 02:44:45;;;;;;;140.85;24.40;;;;;;;3.90;100.00;100894.50;5213244;28;20126;-79
2021/04/20 02:47:16;;;;;;;51.78;24.17;;;;;;;3.83;100.00;100892.81;5214747;28;20029;-80
2021/04/20 02:49:46;;;;;;;35.80;22.42;;;;;;;3.74;100.00;100895.41;5220611;28;20025;-80
2021/04/20 02:52:17;;;;;;;121.70;29.58;;;;;;;3.80;100.00;100899.69;5219803;28;20082;-78
2021/04/20 02:54:47;;;;;;;44.70;26.10;;;;;;;4.09;100.00;100900.47;5217749;28;20033;-79
2021/04/20 02:57:19;;;;;;;41.22;24.30;;;;;;;4.24;100.00;100896.06;5212212;28;20022;-80
2021/04/20 02:59:49;;;;;;;64.10;21.00;;;;;;;4.28;100.00;100896.91;5212172;28;20046;-78
2021/04/20 03:02:20;;;;;;;54.95;22.77;;;;;;;4.12;100.00;100893.53;5230280;28;20037;-80
2021/04/20 03:04:51;;;;;;;64.93;22.15;;;;;;;4.09;100.00;100893.53;5223658;28;20029;-78
2021/04/20 03:07:22;;;;;;;57.17;22.90;;;;;;;3.99;100.00;100884.09;5215893;28;20037;-79
2021/04/20 03:09:52;;;;;;;123.50;23.27;;;;;;;3.83;100.00;100885.06;5212533;28;20033;-80
2021/04/20 03:12:23;;;;;;;38.97;20.35;;;;;;;3.71;100.00;100890.25;5221808;28;20371;-80
2021/04/20 03:14:54;;;;;;;31.77;20.95;;;;;;;3.66;100.00;100876.50;5211430;28;20036;-80
2021/04/20 03:17:24;;;;;;;30.17;22.02;;;;;;;3.57;100.00;100885.97;5222451;28;20029;-79
2021/04/20 03:19:55;;;;;;;44.58;20.17;;;;;;;3.46;100.00;100881.69;5224172;28;20036;-79
2021/04/20 03:22:26;;;;;;;23.33;17.95;;;;;;;3.81;100.00;100881.59;5221086;28;20029;-80
2021/04/20 03:25:06;;;;;;;27.80;18.73;;;;;;;3.65;100.00;100887.66;5214793;28;20028;-80
2021/04/20 03:27:45;;;;;;;28.38;19.02;;;;;;;3.21;100.00;100877.44;5224805;28;20505;-80
2021/04/20 03:30:18;;;;;;;37.22;22.30;;;;;;;3.17;100.00;100884.31;5226580;28;20025;-79
2021/04/20 03:32:55;;;;;;;28.77;21.10;;;;;;;3.14;100.00;100884.34;5216018;28;20025;-79
2021/04/20 03:36:03;;;;;;;30.35;22.00;;;;;;;3.60;100.00;100879.06;5222295;28;20106;-79
2021/04/20 03:38:45;;;;;;;28.75;20.67;;;;;;;3.73;100.00;100875.59;5209430;28;20092;-80
2021/04/20 03:41:25;;;;;;;25.85;19.83;;;;;;;3.81;100.00;100883.31;5215952;28;20064;-79
2021/04/20 03:43:59;;;;;;;24.17;18.42;;;;;;;3.86;100.00;100873.81;5218922;28;20041;-78
2021/04/20 03:46:35;;;;;;;27.23;20.90;;;;;;;3.69;100.00;100881.66;5208089;28;20663;-80
2021/04/20 03:49:20;;;;;;;28.73;21.77;;;;;;;3.59;100.00;100879.94;5216908;28;20049;-80
2021/04/20 03:51:54;;;;;;;32.15;19.67;;;;;;;3.61;100.00;100887.69;5226619;28;20655;-80
2021/04/20 03:54:27;;;;;;;24.20;17.50;;;;;;;3.61;100.00;100885.13;5217585;28;20040;-79
2021/04/20 03:57:00;;;;;;;28.02;17.63;;;;;;;3.25;100.00;100881.75;5210432;28;20045;-81
2021/04/20 03:59:32;;;;;;;24.98;17.40;;;;;;;3.42;100.00;100885.16;5208671;28;20111;-80
2021/04/20 04:02:03;;;;;;;23.67;17.83;;;;;;;3.70;100.00;100883.38;5221264;28;20023;-80
2021/04/20 04:04:34;;;;;;;25.63;20.00;;;;;;;3.61;100.00;100885.97;5217360;28;20033;-79
2021/04/20 04:07:05;;;;;;;30.50;22.58;;;;;;;3.58;100.00;100892.00;5212746;28;20044;-80
2021/04/20 04:09:36;;;;;;;33.38;22.02;;;;;;;3.46;100.00;100892.03;5224021;28;20028;-79
2021/04/20 04:12:09;;;;;;;36.75;24.42;;;;;;;3.58;100.00;100887.72;5220597;28;20035;-78
2021/04/20 04:14:40;;;;;;;36.78;24.05;;;;;;;3.81;100.00;100881.59;5213834;28;20025;-80
2021/04/20 04:17:15;;;;;;;29.60;21.10;;;;;;;4.00;100.00;100878.09;5218498;28;20109;-79
2021/04/20 04:19:47;;;;;;;30.52;22.20;;;;;;;3.91;100.00;100878.13;5219297;23;20038;-82
2021/04/20 04:22:23;;;;;;;28.75;21.55;;;;;;;3.49;100.00;100894.59;5170163;28;20104;-81
2021/04/20 04:24:59;;;;;;;29.85;21.73;;;;;;;3.45;100.00;100891.19;5179542;28;20033;-82
2021/04/20 04:27:34;;;;;;;58.92;23.50;;;;;;;3.02;100.00;100889.50;5180986;28;20097;-82
2021/04/20 04:30:07;;;;;;;46.35;26.70;;;;;;;2.87;100.00;100886.91;5169566;28;20046;-80
2021/04/20 04:32:42;;;;;;;59.75;26.50;;;;;;;3.16;100.00;100886.94;5158619;28;20044;-82
2021/04/20 04:35:13;;;;;;;29.67;23.15;;;;;;;3.63;100.00;100886.81;5159103;28;20531;-80
2021/04/20 04:37:44;;;;;;;30.55;23.52;;;;;;;3.71;100.00;100889.38;5156284;28;20046;-82
2021/04/20 04:40:19;;;;;;;29.05;21.38;;;;;;;3.93;100.00;100876.38;5154204;28;20030;-82
2021/04/20 04:42:50;;;;;;;29.10;21.88;;;;;;;3.80;99.81;100884.19;5155146;28;20034;-82
2021/04/20 04:45:21;;;;;;;28.70;22.50;;;;;;;3.82;100.00;100888.47;5158930;28;20066;-79
2021/04/20 04:47:51;;;;;;;37.10;22.38;;;;;;;4.08;100.00;100886.66;5157064;28;20030;-80
2021/04/20 04:50:23;;;;;;;89.43;22.38;;;;;;;3.99;99.51;100881.50;5152570;28;20042;-82
2021/04/20 04:52:53;;;;;;;44.58;20.73;;;;;;;3.98;100.00;100879.78;5151733;28;20027;-80
2021/04/20 04:55:24;;;;;;;33.05;21.65;;;;;;;3.99;100.00;100886.69;5156123;28;20157;-81
2021/04/20 04:57:56;;;;;;;30.75;21.08;;;;;;;4.03;100.00;100883.25;5158343;28;20022;-82
2021/04/20 05:00:27;;;;;;;27.40;20.95;;;;;;;4.42;100.00;100879.56;5154415;28;20394;-79
2021/04/20 05:02:58;;;;;;;26.00;19.58;;;;;;;4.62;98.21;100886.34;5144605;28;20113;-81
2021/04/20 05:05:30;;;;;;;31.67;21.98;;;;;;;4.16;99.17;100884.88;5148994;28;20085;-80
2021/04/20 05:08:00;;;;;;;38.70;23.85;;;;;;;4.14;100.00;100890.94;5151617;28;20018;-80
2021/04/20 05:10:30;;;;;;;31.45;21.95;;;;;;;4.46;100.00;100884.72;5148396;28;20037;-81
2021/04/20 05:13:01;;;;;;;29.75;21.27;;;;;;;4.57;100.00;100882.94;5149712;28;20518;-80
2021/04/20 05:15:32;;;;;;;28.17;19.70;;;;;;;5.01;99.71;100880.84;5149808;28;20038;-80
2021/04/20 05:18:02;;;;;;;72.90;20.55;;;;;;;4.79;99.39;100878.47;5154321;28;20342;-80
2021/04/20 05:20:35;;;;;;;44.67;20.67;;;;;;;5.13;99.68;100880.75;5152646;28;20030;-81
2021/04/20 05:23:05;;;;;;;112.18;20.08;;;;;;;5.16;98.93;100877.28;5158587;28;20045;-80
2021/04/20 05:25:36;;;;;;;39.85;18.38;;;;;;;5.67;97.67;100875.03;5149229;28;20503;-80
2021/04/20 05:28:06;;;;;;;20.92;17.25;;;;;;;6.18;95.79;100870.09;5151467;28;20034;-79
2021/04/20 05:30:37;;;;;;;18.65;16.55;;;;;;;6.31;92.99;100865.59;5148550;28;20023;-80
2021/04/20 05:33:07;;;;;;;21.45;16.23;;;;;;;6.60;91.17;100860.88;5152224;28;20034;-81
2021/04/20 05:35:38;;;;;;;34.90;16.48;;;;;;;6.45;92.85;100864.53;5160082;28;20587;-80
2021/04/20 05:38:08;;;;;;;22.80;15.13;;;;;;;7.24;90.61;100864.13;5149005;28;20436;-81
2021/04/20 05:40:41;;;;;;;18.08;14.90;;;;;;;7.63;88.09;100865.13;5150053;28;20031;-81
2021/04/20 05:43:11;;;;;;;15.85;14.15;;;;;;;9.25;80.77;100857.09;5150497;28;20034;-81
2021/04/20 05:45:42;;;;;;;14.30;12.75;;;;;;;9.01;81.29;100846.44;5156700;28;20026;-82
2021/04/20 05:48:12;;;;;;;14.30;12.30;;;;;;;9.57;76.77;100851.88;5152011;28;20022;-82
2021/04/20 05:50:50;;;;;;;13.40;11.77;;;;;;;9.45;80.54;100857.41;5156251;28;20022;-81
2021/04/20 05:53:20;;;;;;;19.00;13.38;;;;;;;8.40;82.32;100861.78;5152200;28;20033;-81
2021/04/20 05:55:50;;;;;;;20.02;15.57;;;;;;;7.25;91.53;100873.66;5149143;28;20410;-82
2021/04/20 05:58:21;;;;;;;20.92;15.60;;;;;;;6.54;93.51;100874.78;5153498;28;20038;-82
2021/04/20 06:00:51;;;;;;;16.85;15.05;;;;;;;7.19;92.59;100871.13;5158519;28;20034;-82
2021/04/20 06:03:22;;;;;;;20.48;17.33;;;;;;;6.59;97.07;100864.34;5151874;28;20065;-81
2021/04/20 06:05:56;;;;;;;23.85;19.55;;;;;;;6.07;100.00;100871.13;5154503;28;20554;-83
2021/04/20 06:08:27;;;;;;;20.75;17.70;;;;;;;7.03;95.89;100865.34;5157959;28;20050;-82
2021/04/20 06:10:58;;;;;;;20.08;16.58;;;;;;;7.61;92.93;100872.09;5151786;28;20513;-82
2021/04/20 06:13:29;;;;;;;24.77;17.77;;;;;;;7.55;94.37;100861.78;5152678;28;20054;-82
2021/04/20 06:16:00;;;;;;;22.98;18.50;;;;;;;7.92;93.90;100859.34;5151837;28;20058;-84
2021/04/20 06:18:31;;;;;;;22.50;18.40;;;;;;;7.63;94.56;100859.03;5155342;28;20038;-82
2021/04/20 06:21:02;;;;;;;24.77;19.45;;;;;;;7.61;97.36;100866.88;5158211;28;20092;-82
2021/04/20 06:23:35;;;;;;;33.13;21.80;;;;;;;7.63;98.43;100859.91;5151287;28;20554;-84
2021/04/20 06:26:06;;;;;;;28.65;21.20;;;;;;;7.72;99.58;100861.47;5149793;28;20652;-83
2021/04/20 06:28:37;;;;;;;31.45;22.50;;;;;;;8.21;99.74;100854.41;5154201;28;20042;-83
2021/04/20 06:31:08;;;;;;;33.42;23.42;;;;;;;9.37;96.74;100845.47;5152279;28;20038;-84
2021/04/20 06:33:39;;;;;;;27.90;20.27;;;;;;;11.86;87.19;100844.50;5155899;28;20706;-81
2021/04/20 06:36:10;;;;;;;24.83;17.27;;;;;;;14.41;74.44;100823.22;5160748;28;20038;-84
2021/04/20 06:38:40;;;;;;;21.25;16.00;;;;;;;15.43;71.82;100825.06;5156037;28;20034;-84
2021/04/20 06:41:12;;;;;;;21.23;15.68;;;;;;;17.11;65.79;100821.81;5152296;28;20034;-81
2021/04/20 06:43:54;;;;;;;22.33;16.33;;;;;;;15.55;68.55;100834.97;5152991;28;20393;-85
2021/04/20 06:46:43;;;;;;;19.25;15.25;;;;;;;17.87;64.11;100826.06;5149112;28;20157;-85
2021/04/20 06:49:29;;;;;;;19.83;15.45;;;;;;;18.65;64.09;100827.22;5157851;28;20080;-82
2021/04/20 06:52:07;;;;;;;20.88;13.90;;;;;;;19.48;59.94;100814.56;5153060;28;20436;-82
2021/04/20 06:54:50;;;;;;;16.48;10.10;;;;;;;20.00;57.77;100808.22;5154134;28;20645;-80
2021/04/20 06:57:43;;;;;;;12.70;8.15;;;;;;;20.46;56.03;100814.59;5157902;28;20199;-83
2021/04/20 07:00:17;;;;;;;12.15;7.53;;;;;;;21.04;52.67;100798.78;5140754;28;20034;-81
2021/04/20 07:03:08;;;;;;;12.80;7.55;;;;;;;20.32;54.44;100812.09;5149764;28;20374;-81
2021/04/20 07:05:38;;;;;;;10.23;6.25;;;;;;;21.61;53.23;100811.13;5152423;28;20033;-82
2021/04/20 07:08:27;;;;;;;9.90;6.97;;;;;;;22.30;48.63;100804.78;5153932;28;20026;-82
2021/04/20 07:10:59;;;;;;;12.48;6.80;;;;;;;22.22;50.12;100802.72;5152366;28;20041;-82
2021/04/20 07:13:30;;;;;;;11.50;6.30;;;;;;;21.00;51.45;100807.91;5152668;28;20035;-81
2021/04/20 07:16:15;;;;;;;12.05;6.78;;;;;;;22.05;50.70;100797.06;5143183;28;20061;-81
2021/04/20 07:19:23;;;;;;;12.60;6.20;;;;;;;20.45;52.97;100802.28;5152192;28;20439;-80
2021/04/20 07:22:21;;;;;;;10.55;5.63;;;;;;;20.65;51.61;100796.34;5150845;28;20022;-82
2021/04/20 07:25:14;;;;;;;9.55;5.72;;;;;;;23.47;48.86;100782.47;5159534;28;20033;-81
2021/04/20 07:27:47;;;;;;;10.95;5.85;;;;;;;22.71;46.78;100788.00;5152191;28;20029;-81
2021/04/20 07:30:32;;;;;;;11.68;6.20;;;;;;;24.45;46.21;100782.66;5162184;28;20105;-82
2021/04/20 07:33:18;;;;;;;12.27;5.25;;;;;;;24.02;46.50;100782.13;5155146;28;20433;-82
2021/04/20 07:36:26;;;;;;;11.13;5.65;;;;;;;20.84;51.17;100780.78;5155429;28;20113;-81
2021/04/20 07:39:02;;;;;;;10.15;5.20;;;;;;;23.32;47.29;100773.97;5153100;28;20034;-81
2021/04/20 07:41:43;;;;;;;10.95;5.38;;;;;;;21.39;48.66;100781.00;5157527;28;20034;-79
2021/04/20 07:44:22;;;;;;;11.05;5.28;;;;;;;21.67;49.91;100776.13;5154876;28;20480;-81
2021/04/20 07:46:55;;;;;;;10.88;4.82;;;;;;;22.54;47.95;100784.19;5156961;28;20030;-82
2021/04/20 07:49:50;;;;;;;10.98;5.13;;;;;;;21.35;48.32;100779.50;5152073;28;20042;-80
2021/04/20 07:52:31;;;;;;;9.45;5.20;;;;;;;21.17;50.34;100778.25;5150653;28;20031;-81
2021/04/20 07:55:14;;;;;;;11.75;4.85;;;;;;;22.58;48.23;100770.47;5152291;28;20570;-80
2021/04/20 07:57:53;;;;;;;11.77;5.60;;;;;;;21.63;48.73;100768.47;5152706;28;20064;-81
2021/04/20 08:00:36;;;;;;;9.05;4.90;;;;;;;22.19;48.64;100770.16;5150835;28;20064;-81
2021/04/20 08:03:18;;;;;;;10.55;4.80;;;;;;;23.95;45.13;100763.09;5176149;28;20034;-81
2021/04/20 08:05:54;;;;;;;10.60;4.93;;;;;;;23.84;45.02;100776.53;5151478;28;20027;-80
2021/04/20 08:08:40;;;;;;;10.45;5.45;;;;;;;23.38;44.86;100778.75;5154375;28;20028;-79
2021/04/20 08:11:43;;;;;;;12.05;5.47;;;;;;;23.48;45.80;100771.69;5154004;28;20037;-80
2021/04/20 08:14:30;;;;;;;12.48;5.35;;;;;;;23.43;46.33;100773.03;5151185;28;20042;-80
2021/04/20 08:17:07;;;;;;;17.67;5.75;;;;;;;21.39;48.79;100775.69;5147829;28;20121;-80
2021/04/20 08:19:42;;;;;;;12.30;5.70;;;;;;;22.52;47.02;100776.31;5152405;28;20925;-78
2021/04/20 08:22:15;;;;;;;12.50;5.93;;;;;;;23.63;45.55;100764.16;5154114;28;20105;-80
2021/04/20 08:25:01;;;;;;;11.63;5.63;;;;;;;23.97;47.09;100765.63;5150226;28;20086;-80
2021/04/20 08:27:47;;;;;;;12.10;5.97;;;;;;;22.03;48.07;100769.69;5159258;28;20034;-80
2021/04/20 08:30:28;;;;;;;9.38;5.60;;;;;;;22.60;47.64;100768.53;5153874;28;20038;-81
2021/04/20 08:33:02;;;;;;;13.20;5.85;;;;;;;22.64;48.87;100769.16;5151830;28;20397;-79
2021/04/20 08:35:33;;;;;;;10.85;6.10;;;;;;;24.59;47.19;100753.72;5158440;28;20451;-80
2021/04/20 08:38:26;;;;;;;14.10;6.05;;;;;;;22.29;49.20;100760.47;5154915;28;20109;-80
2021/04/20 08:41:07;;;;;;;15.65;6.22;;;;;;;23.04;48.53;100758.53;5172956;28;20037;-79
2021/04/20 08:43:53;;;;;;;13.43;6.50;;;;;;;23.23;46.37;100757.88;5151143;28;20027;-80
2021/04/20 08:46:48;;;;;;;10.05;6.20;;;;;;;22.06;50.94;100761.50;5143065;28;20039;-80
2021/04/20 08:49:48;;;;;;;14.02;6.43;;;;;;;24.93;45.11;100747.00;5146342;28;20046;-79
2021/04/20 08:53:05;;;;;;;15.00;6.20;;;;;;;23.46;48.02;100749.63;5154078;28;20643;-80
2021/04/20 08:55:54;;;;;;;;;;;;;;;22.16;49.09;100760.63;5157065;28;20031;-80
2021/04/20 08:58:34;;;;;;;12.68;6.10;;;;;;;23.61;47.55;100752.78;5160842;28;20690;-80
2021/04/20 09:01:41;;;;;;;10.80;6.30;;;;;;;22.26;49.99;100760.72;5155181;28;20035;-80
2021/04/20 09:04:39;;;;;;;13.27;6.40;;;;;;;21.45;50.29;100754.78;5156876;28;20506;-79
2021/04/20 09:07:31;;;;;;;12.70;5.60;;;;;;;23.58;47.85;100742.38;5151294;28;20019;-79
2021/04/20 09:10:13;;;;;;;12.52;5.40;;;;;;;24.24;47.42;100731.97;5150549;28;20084;-79
2021/04/20 09:12:46;;;;;;;13.75;5.55;;;;;;;24.29;47.33;100740.44;5148391;28;20023;-79
2021/04/20 09:15:19;;;;;;;16.42;6.07;;;;;;;21.74;50.03;100739.22;5151578;28;20061;-78
2021/04/20 09:17:51;;;;;;;14.35;5.70;;;;;;;23.65;48.50;100738.19;5157142;28;20022;-79
2021/04/20 09:20:33;;;;;;;11.73;6.03;;;;;;;22.21;50.08;100738.94;5156810;28;20518;-79
2021/04/20 09:23:15;;;;;;;13.70;6.68;;;;;;;21.18;52.69;100748.03;5153043;28;20027;-79
2021/04/20 09:26:00;;;;;;;13.63;6.38;;;;;;;21.00;53.14;100747.66;5150751;28;20030;-78
2021/04/20 09:28:36;;;;;;;16.48;6.60;;;;;;;19.78;56.34;100749.63;5151037;28;20166;-78
2021/04/20 09:31:17;;;;;;;16.20;7.07;;;;;;;19.04;57.33;100758.38;5151420;28;20034;-78
2021/04/20 09:33:52;;;;;;;15.70;7.15;;;;;;;19.30;57.81;100754.84;5155538;28;20544;-79
2021/04/20 09:36:24;;;;;;;19.98;7.05;;;;;;;18.59;60.19;100755.28;5151979;28;20030;-78
2021/04/20 09:38:56;;;;;;;15.02;6.97;;;;;;;18.41;60.01;100753.81;5150132;28;20129;-78
2021/04/20 09:41:48;;;;;;;17.98;6.97;;;;;;;18.41;60.48;100748.53;5151328;28;20088;-79
2021/04/20 09:44:39;;;;;;;16.10;7.15;;;;;;;18.21;59.46;100752.41;5148736;28;20046;-79
2021/04/20 09:47:51;;;;;;;20.23;6.68;;;;;;;18.36;59.92;100748.00;5147978;28;20771;-78
2021/04/20 09:50:40;;;;;;;15.00;6.75;;;;;;;18.10;61.29;100751.41;5154319;28;20034;-78
2021/04/20 09:53:22;;;;;;;12.93;6.43;;;;;;;18.28;60.01;100745.84;5154562;28;20416;-78
2021/04/20 09:56:20;;;;;;;13.02;6.55;;;;;;;18.12;61.28;100750.38;5157461;28;20077;-79
2021/04/20 09:58:50;;;;;;;15.90;6.93;;;;;;;18.29;59.33;100736.06;5153404;28;20035;-80
2021/04/20 10:01:37;;;;;;;13.07;6.28;;;;;;;17.82;61.45;100746.16;5156336;28;20535;-80
2021/04/20 10:04:17;;;;;;;12.85;5.75;;;;;;;17.72;60.02;100743.25;5163195;28;20026;-80
2021/04/20 10:07:09;;;;;;;17.13;6.43;;;;;;;17.70;61.89;100744.28;5152563;28;20027;-81
2021/04/20 10:10:00;;;;;;;13.23;6.60;;;;;;;17.78;61.05;100749.94;5152702;28;20026;-80
2021/04/20 10:12:55;;;;;;;11.10;6.43;;;;;;;17.36;62.16;100744.63;5154077;28;20026;-80
2021/04/20 10:15:40;;;;;;;14.90;6.53;;;;;;;16.76;61.92;100739.47;5147902;28;20497;-81
2021/04/20 10:18:21;;;;;;;15.80;6.43;;;;;;;16.72;62.26;100740.59;5156361;28;20056;-80
2021/04/20 10:21:33;;;;;;;16.40;6.43;;;;;;;16.91;63.56;100737.63;5155508;28;20031;-80
2021/04/20 10:24:21;;;;;;;16.98;6.68;;;;;;;16.84;64.94;100738.09;5141907;28;20026;-80
2021/04/20 10:27:15;;;;;;;16.10;6.80;;;;;;;17.20;64.04;100738.53;5158216;28;20038;-80
2021/04/20 10:30:02;;;;;;;15.13;6.72;;;;;;;16.99;64.11;100731.91;5158452;28;20035;-80
2021/04/20 10:32:40;;;;;;;18.15;6.97;;;;;;;17.26;64.63;100731.09;5157381;28;20109;-80
2021/04/20 10:35:39;;;;;;;15.27;7.20;;;;;;;17.50;63.82;100721.69;5156835;28;20657;-80
2021/04/20 10:38:15;;;;;;;14.52;7.00;;;;;;;17.78;62.78;100724.34;5166935;28;20030;-81
2021/04/20 10:40:45;;;;;;;18.10;6.75;;;;;;;17.70;61.80;100724.00;5156156;28;20026;-81
2021/04/20 10:43:19;;;;;;;13.85;6.40;;;;;;;17.16;61.52;100723.81;5155356;28;20057;-81
2021/04/20 10:45:51;;;;;;;16.25;6.55;;;;;;;17.54;62.15;100725.03;5145801;28;20027;-82
2021/04/20 10:48:24;;;;;;;18.02;6.70;;;;;;;17.05;61.01;100715.69;5161087;28;20038;-80
2021/04/20 10:50:55;;;;;;;14.80;6.13;;;;;;;17.33;64.34;100715.72;5155249;28;20030;-80
2021/04/20 10:53:31;;;;;;;16.63;7.03;;;;;;;17.63;63.43;100714.72;5154739;28;20109;-81
2021/04/20 10:56:11;;;;;;;13.25;6.32;;;;;;;17.51;61.43;100712.00;5160996;28;20082;-81
2021/04/20 10:58:44;;;;;;;13.65;6.50;;;;;;;17.54;62.45;100711.81;5161152;28;20033;-82
2021/04/20 11:01:18;;;;;;;14.80;5.88;;;;;;;17.54;61.05;100709.16;5157517;28;20030;-81
2021/04/20 11:03:52;;;;;;;13.75;5.65;;;;;;;17.58;59.88;100700.09;5153497;28;20077;-81
2021/04/20 11:07:01;;;;;;;13.10;5.60;;;;;;;17.22;59.64;100708.47;5155090;28;20030;-80
2021/04/20 11:09:33;;;;;;;18.15;6.43;;;;;;;17.28;59.37;100701.97;5152311;28;20076;-81
2021/04/20 11:12:18;;;;;;;16.73;6.53;;;;;;;17.10;60.54;100697.75;5156205;28;20027;-82
2021/04/20 11:14:51;;;;;;;9.43;5.57;;;;;;;17.11;59.79;100691.56;5148278;28;20370;-82
2021/04/20 11:17:46;;;;;;;11.55;5.45;;;;;;;17.01;59.53;100693.88;5149501;28;20038;-82
2021/04/20 11:20:30;;;;;;;11.80;5.55;;;;;;;17.03;59.67;100693.81;5152490;28;20049;-82
2021/04/20 11:23:09;;;;;;;14.60;6.47;;;;;;;17.33;61.01;100694.59;5157625;28;20030;-82
2021/04/20 11:25:58;;;;;;;17.23;6.47;;;;;;;17.39;60.66;100683.66;5149465;28;20029;-82
2021/04/20 11:28:46;;;;;;;14.13;5.68;;;;;;;17.10;60.78;100682.78;5152924;28;20370;-83
2021/04/20 11:31:45;;;;;;;16.30;6.78;;;;;;;16.47;60.98;100679.59;5154604;28;20492;-82
2021/04/20 11:34:20;;;;;;;13.98;5.95;;;;;;;16.99;61.51;100684.38;5162025;28;20202;-82
2021/04/20 11:37:02;;;;;;;11.63;5.67;;;;;;;16.80;60.95;100681.13;5153162;28;20023;-82
2021/04/20 11:39:58;;;;;;;13.60;6.93;;;;;;;17.20;61.27;100677.78;5153068;28;20033;-82
2021/04/20 11:42:45;;;;;;;16.15;6.20;;;;;;;17.16;60.02;100668.34;5150124;28;20130;-84
2021/04/20 11:45:21;;;;;;;12.93;5.68;;;;;;;17.28;61.85;100675.53;5146502;28;20054;-83
2021/04/20 11:48:00;;;;;;;13.93;5.75;;;;;;;17.42;59.59;100672.91;5156921;28;20053;-83
2021/04/20 11:50:34;;;;;;;16.80;6.03;;;;;;;17.11;59.50;100671.28;5156743;28;20437;-82
2021/04/20 11:53:08;;;;;;;12.27;5.75;;;;;;;17.27;59.19;100663.25;5152469;28;20034;-82
2021/04/20 11:55:43;;;;;;;15.65;6.25;;;;;;;17.38;60.51;100671.41;5144716;28;20114;-82
2021/04/20 11:58:22;;;;;;;15.00;5.90;;;;;;;17.41;59.10;100668.56;5155689;28;20041;-82